sensor_id;sensor_type;location;lat;lon;timestamp;P1;durP1;ratioP1;P2;durP2;ratioP2
21245;SDS011;10781;50.928;4.440;2023-07-30T00:01:54;10.32;;;2.60;;
21245;SDS011;10781;50.928;4.440;2023-07-30T00:04:20;8.93;;;2.55;;
21245;SDS011;10781;50.928;4.440;2023-07-30T00:06:46;9.55;;;2.53;;
21245;SDS011;10781;50.928;4.440;2023-07-30T00:09:12;6.22;;;2.20;;
21245;SDS011;10781;50.928;4.440;2023-07-30T00:11:37;8.88;;;2.53;;
21245;SDS011;10781;50.928;4.440;2023-07-30T00:14:03;7.70;;;2.47;;
21245;SDS011;10781;50.928;4.440;2023-07-30T00:16:29;7.43;;;2.47;;
21245;SDS011;10781;50.928;4.440;2023-07-30T00:18:55;9.98;;;2.38;;
21245;SDS011;10781;50.928;4.440;2023-07-30T00:21:21;10.90;;;2.28;;
21245;SDS011;10781;50.928;4.440;2023-07-30T00:23:47;8.68;;;2.55;;
21245;SDS011;10781;50.928;4.440;2023-07-30T00:26:13;8.57;;;2.55;;
21245;SDS011;10781;50.928;4.440;2023-07-30T00:28:38;12.63;;;3.42;;
21245;SDS011;10781;50.928;4.440;2023-07-30T00:31:04;9.23;;;2.88;;
21245;SDS011;10781;50.928;4.440;2023-07-30T00:33:30;6.50;;;2.63;;
21245;SDS011;10781;50.928;4.440;2023-07-30T00:35:55;9.68;;;2.85;;
21245;SDS011;10781;50.928;4.440;2023-07-30T00:38:21;9.85;;;3.13;;
21245;SDS011;10781;50.928;4.440;2023-07-30T00:40:47;6.30;;;2.78;;
21245;SDS011;10781;50.928;4.440;2023-07-30T00:43:12;10.77;;;3.17;;
21245;SDS011;10781;50.928;4.440;2023-07-30T00:45:38;10.98;;;3.20;;
21245;SDS011;10781;50.928;4.440;2023-07-30T00:48:06;11.10;;;3.45;;
21245;SDS011;10781;50.928;4.440;2023-07-30T00:50:32;6.68;;;2.72;;
21245;SDS011;10781;50.928;4.440;2023-07-30T00:52:58;9.10;;;3.30;;
21245;SDS011;10781;50.928;4.440;2023-07-30T00:55:24;8.07;;;2.88;;
21245;SDS011;10781;50.928;4.440;2023-07-30T00:57:50;11.93;;;3.03;;
21245;SDS011;10781;50.928;4.440;2023-07-30T01:00:17;7.03;;;2.85;;
21245;SDS011;10781;50.928;4.440;2023-07-30T01:02:43;15.50;;;3.85;;
21245;SDS011;10781;50.928;4.440;2023-07-30T01:05:09;7.93;;;2.92;;
21245;SDS011;10781;50.928;4.440;2023-07-30T01:07:34;13.40;;;3.15;;
21245;SDS011;10781;50.928;4.440;2023-07-30T01:10:00;11.00;;;3.25;;
21245;SDS011;10781;50.928;4.440;2023-07-30T01:12:27;10.43;;;2.95;;
21245;SDS011;10781;50.928;4.440;2023-07-30T01:14:55;9.85;;;2.72;;
21245;SDS011;10781;50.928;4.440;2023-07-30T01:17:21;10.98;;;2.90;;
21245;SDS011;10781;50.928;4.440;2023-07-30T01:19:48;9.93;;;2.55;;
21245;SDS011;10781;50.928;4.440;2023-07-30T01:22:14;9.27;;;3.08;;
21245;SDS011;10781;50.928;4.440;2023-07-30T01:24:41;8.75;;;2.85;;
21245;SDS011;10781;50.928;4.440;2023-07-30T01:27:07;10.45;;;2.92;;
21245;SDS011;10781;50.928;4.440;2023-07-30T01:29:45;14.52;;;2.80;;
21245;SDS011;10781;50.928;4.440;2023-07-30T01:32:16;10.57;;;2.88;;
21245;SDS011;10781;50.928;4.440;2023-07-30T01:34:45;7.38;;;2.42;;
21245;SDS011;10781;50.928;4.440;2023-07-30T01:37:12;9.80;;;2.83;;
21245;SDS011;10781;50.928;4.440;2023-07-30T01:39:39;9.10;;;2.55;;
21245;SDS011;10781;50.928;4.440;2023-07-30T01:42:06;7.88;;;2.30;;
21245;SDS011;10781;50.928;4.440;2023-07-30T01:44:32;11.18;;;2.83;;
21245;SDS011;10781;50.928;4.440;2023-07-30T01:46:57;9.55;;;2.40;;
21245;SDS011;10781;50.928;4.440;2023-07-30T01:49:23;8.95;;;2.35;;
21245;SDS011;10781;50.928;4.440;2023-07-30T01:51:49;10.40;;;2.50;;
21245;SDS011;10781;50.928;4.440;2023-07-30T01:54:14;11.50;;;2.70;;
21245;SDS011;10781;50.928;4.440;2023-07-30T01:56:40;12.77;;;2.67;;
21245;SDS011;10781;50.928;4.440;2023-07-30T01:59:06;10.25;;;2.60;;
21245;SDS011;10781;50.928;4.440;2023-07-30T02:01:31;9.90;;;2.40;;
21245;SDS011;10781;50.928;4.440;2023-07-30T02:03:57;8.63;;;2.28;;
21245;SDS011;10781;50.928;4.440;2023-07-30T02:06:22;11.02;;;2.72;;
21245;SDS011;10781;50.928;4.440;2023-07-30T02:08:48;9.85;;;2.90;;
21245;SDS011;10781;50.928;4.440;2023-07-30T02:11:14;8.85;;;2.70;;
21245;SDS011;10781;50.928;4.440;2023-07-30T02:13:39;11.43;;;2.97;;
21245;SDS011;10781;50.928;4.440;2023-07-30T02:16:05;9.55;;;2.45;;
21245;SDS011;10781;50.928;4.440;2023-07-30T02:18:30;14.43;;;2.63;;
21245;SDS011;10781;50.928;4.440;2023-07-30T02:20:56;10.75;;;2.97;;
21245;SDS011;10781;50.928;4.440;2023-07-30T02:23:22;14.02;;;2.75;;
21245;SDS011;10781;50.928;4.440;2023-07-30T02:25:47;9.93;;;2.70;;
21245;SDS011;10781;50.928;4.440;2023-07-30T02:28:13;9.77;;;2.25;;
21245;SDS011;10781;50.928;4.440;2023-07-30T02:30:38;11.07;;;2.78;;
21245;SDS011;10781;50.928;4.440;2023-07-30T02:33:04;11.23;;;2.65;;
21245;SDS011;10781;50.928;4.440;2023-07-30T02:35:30;12.77;;;2.72;;
21245;SDS011;10781;50.928;4.440;2023-07-30T02:37:55;11.27;;;2.90;;
21245;SDS011;10781;50.928;4.440;2023-07-30T02:40:21;7.15;;;2.40;;
21245;SDS011;10781;50.928;4.440;2023-07-30T02:42:47;8.73;;;2.70;;
21245;SDS011;10781;50.928;4.440;2023-07-30T02:45:12;7.05;;;2.50;;
21245;SDS011;10781;50.928;4.440;2023-07-30T02:47:38;11.98;;;2.70;;
21245;SDS011;10781;50.928;4.440;2023-07-30T02:50:04;9.90;;;2.90;;
21245;SDS011;10781;50.928;4.440;2023-07-30T02:52:31;9.57;;;2.53;;
21245;SDS011;10781;50.928;4.440;2023-07-30T02:54:56;13.23;;;2.42;;
21245;SDS011;10781;50.928;4.440;2023-07-30T02:57:22;10.93;;;2.70;;
21245;SDS011;10781;50.928;4.440;2023-07-30T02:59:47;11.77;;;2.78;;
21245;SDS011;10781;50.928;4.440;2023-07-30T03:02:13;11.05;;;2.55;;
21245;SDS011;10781;50.928;4.440;2023-07-30T03:04:39;18.27;;;3.40;;
21245;SDS011;10781;50.928;4.440;2023-07-30T03:07:05;12.55;;;2.67;;
21245;SDS011;10781;50.928;4.440;2023-07-30T03:09:31;9.18;;;2.67;;
21245;SDS011;10781;50.928;4.440;2023-07-30T03:11:57;10.05;;;2.42;;
21245;SDS011;10781;50.928;4.440;2023-07-30T03:14:24;14.60;;;2.95;;
21245;SDS011;10781;50.928;4.440;2023-07-30T03:16:50;11.63;;;2.65;;
21245;SDS011;10781;50.928;4.440;2023-07-30T03:19:15;11.43;;;2.30;;
21245;SDS011;10781;50.928;4.440;2023-07-30T03:21:41;9.85;;;2.42;;
21245;SDS011;10781;50.928;4.440;2023-07-30T03:24:07;8.43;;;2.20;;
21245;SDS011;10781;50.928;4.440;2023-07-30T03:26:33;11.35;;;2.40;;
21245;SDS011;10781;50.928;4.440;2023-07-30T03:28:58;8.82;;;2.55;;
21245;SDS011;10781;50.928;4.440;2023-07-30T03:31:24;14.27;;;2.58;;
21245;SDS011;10781;50.928;4.440;2023-07-30T03:33:50;11.10;;;2.17;;
21245;SDS011;10781;50.928;4.440;2023-07-30T03:36:16;15.95;;;2.90;;
21245;SDS011;10781;50.928;4.440;2023-07-30T03:38:42;14.80;;;2.80;;
21245;SDS011;10781;50.928;4.440;2023-07-30T03:41:08;10.23;;;2.72;;
21245;SDS011;10781;50.928;4.440;2023-07-30T03:43:35;16.48;;;2.75;;
21245;SDS011;10781;50.928;4.440;2023-07-30T03:46:01;15.10;;;2.58;;
21245;SDS011;10781;50.928;4.440;2023-07-30T03:48:27;10.90;;;2.15;;
21245;SDS011;10781;50.928;4.440;2023-07-30T03:50:53;12.45;;;2.22;;
21245;SDS011;10781;50.928;4.440;2023-07-30T03:53:19;8.38;;;2.20;;
21245;SDS011;10781;50.928;4.440;2023-07-30T03:55:45;11.10;;;2.65;;
21245;SDS011;10781;50.928;4.440;2023-07-30T03:58:11;10.23;;;2.42;;
21245;SDS011;10781;50.928;4.440;2023-07-30T04:00:37;9.43;;;2.20;;
21245;SDS011;10781;50.928;4.440;2023-07-30T04:03:02;14.10;;;3.20;;
21245;SDS011;10781;50.928;4.440;2023-07-30T04:05:29;15.20;;;3.00;;
21245;SDS011;10781;50.928;4.440;2023-07-30T04:07:55;10.23;;;2.50;;
21245;SDS011;10781;50.928;4.440;2023-07-30T04:10:20;15.18;;;3.13;;
21245;SDS011;10781;50.928;4.440;2023-07-30T04:12:46;13.27;;;2.72;;
21245;SDS011;10781;50.928;4.440;2023-07-30T04:15:12;16.55;;;2.75;;
21245;SDS011;10781;50.928;4.440;2023-07-30T04:17:38;11.18;;;2.70;;
21245;SDS011;10781;50.928;4.440;2023-07-30T04:20:04;16.48;;;2.88;;
21245;SDS011;10781;50.928;4.440;2023-07-30T04:22:30;15.00;;;2.78;;
21245;SDS011;10781;50.928;4.440;2023-07-30T04:24:56;12.63;;;2.63;;
21245;SDS011;10781;50.928;4.440;2023-07-30T04:27:21;9.73;;;2.78;;
21245;SDS011;10781;50.928;4.440;2023-07-30T04:29:47;9.35;;;2.17;;
21245;SDS011;10781;50.928;4.440;2023-07-30T04:32:13;9.48;;;2.58;;
21245;SDS011;10781;50.928;4.440;2023-07-30T04:34:38;15.30;;;2.75;;
21245;SDS011;10781;50.928;4.440;2023-07-30T04:37:04;13.45;;;2.60;;
21245;SDS011;10781;50.928;4.440;2023-07-30T04:39:31;11.45;;;3.22;;
21245;SDS011;10781;50.928;4.440;2023-07-30T04:41:57;11.27;;;2.63;;
21245;SDS011;10781;50.928;4.440;2023-07-30T04:44:23;15.40;;;2.92;;
21245;SDS011;10781;50.928;4.440;2023-07-30T04:46:49;11.60;;;2.85;;
21245;SDS011;10781;50.928;4.440;2023-07-30T04:49:14;15.27;;;3.30;;
21245;SDS011;10781;50.928;4.440;2023-07-30T04:51:40;16.98;;;3.33;;
21245;SDS011;10781;50.928;4.440;2023-07-30T04:54:06;13.32;;;3.08;;
21245;SDS011;10781;50.928;4.440;2023-07-30T04:56:32;16.05;;;3.10;;
21245;SDS011;10781;50.928;4.440;2023-07-30T04:58:57;12.45;;;2.97;;
21245;SDS011;10781;50.928;4.440;2023-07-30T05:01:26;14.02;;;2.63;;
21245;SDS011;10781;50.928;4.440;2023-07-30T05:03:52;13.68;;;2.83;;
21245;SDS011;10781;50.928;4.440;2023-07-30T05:06:18;12.38;;;2.55;;
21245;SDS011;10781;50.928;4.440;2023-07-30T05:08:43;18.85;;;3.45;;
21245;SDS011;10781;50.928;4.440;2023-07-30T05:11:09;10.73;;;2.53;;
21245;SDS011;10781;50.928;4.440;2023-07-30T05:13:35;13.65;;;2.38;;
21245;SDS011;10781;50.928;4.440;2023-07-30T05:16:00;15.60;;;2.95;;
21245;SDS011;10781;50.928;4.440;2023-07-30T05:18:26;14.70;;;2.63;;
21245;SDS011;10781;50.928;4.440;2023-07-30T05:20:52;10.32;;;2.42;;
21245;SDS011;10781;50.928;4.440;2023-07-30T05:23:19;10.38;;;2.55;;
21245;SDS011;10781;50.928;4.440;2023-07-30T05:25:45;13.10;;;2.83;;
21245;SDS011;10781;50.928;4.440;2023-07-30T05:28:11;13.10;;;2.60;;
21245;SDS011;10781;50.928;4.440;2023-07-30T05:30:36;12.43;;;2.60;;
21245;SDS011;10781;50.928;4.440;2023-07-30T05:33:02;15.38;;;2.45;;
21245;SDS011;10781;50.928;4.440;2023-07-30T05:35:28;14.73;;;2.85;;
21245;SDS011;10781;50.928;4.440;2023-07-30T05:37:53;14.82;;;3.28;;
21245;SDS011;10781;50.928;4.440;2023-07-30T05:40:20;12.23;;;3.42;;
21245;SDS011;10781;50.928;4.440;2023-07-30T05:42:46;18.30;;;2.97;;
21245;SDS011;10781;50.928;4.440;2023-07-30T05:45:12;18.08;;;3.10;;
21245;SDS011;10781;50.928;4.440;2023-07-30T05:47:38;14.00;;;3.05;;
21245;SDS011;10781;50.928;4.440;2023-07-30T05:50:04;12.05;;;3.10;;
21245;SDS011;10781;50.928;4.440;2023-07-30T05:52:30;14.57;;;3.03;;
21245;SDS011;10781;50.928;4.440;2023-07-30T05:54:55;12.35;;;2.70;;
21245;SDS011;10781;50.928;4.440;2023-07-30T05:57:21;11.35;;;2.50;;
21245;SDS011;10781;50.928;4.440;2023-07-30T05:59:46;14.30;;;2.58;;
21245;SDS011;10781;50.928;4.440;2023-07-30T06:02:12;12.07;;;2.75;;
21245;SDS011;10781;50.928;4.440;2023-07-30T06:04:38;11.93;;;2.95;;
21245;SDS011;10781;50.928;4.440;2023-07-30T06:07:04;13.65;;;2.67;;
21245;SDS011;10781;50.928;4.440;2023-07-30T06:09:29;11.20;;;2.53;;
21245;SDS011;10781;50.928;4.440;2023-07-30T06:11:56;13.73;;;2.70;;
21245;SDS011;10781;50.928;4.440;2023-07-30T06:14:22;11.73;;;2.95;;
21245;SDS011;10781;50.928;4.440;2023-07-30T06:16:48;13.85;;;2.30;;
21245;SDS011;10781;50.928;4.440;2023-07-30T06:19:14;12.65;;;2.65;;
21245;SDS011;10781;50.928;4.440;2023-07-30T06:21:40;11.43;;;3.05;;
21245;SDS011;10781;50.928;4.440;2023-07-30T06:24:05;11.05;;;2.70;;
21245;SDS011;10781;50.928;4.440;2023-07-30T06:26:31;10.77;;;2.58;;
21245;SDS011;10781;50.928;4.440;2023-07-30T06:28:57;20.08;;;3.30;;
21245;SDS011;10781;50.928;4.440;2023-07-30T06:31:22;15.57;;;3.10;;
21245;SDS011;10781;50.928;4.440;2023-07-30T06:33:48;15.60;;;3.00;;
21245;SDS011;10781;50.928;4.440;2023-07-30T06:36:14;15.18;;;2.90;;
21245;SDS011;10781;50.928;4.440;2023-07-30T06:38:39;12.35;;;2.72;;
21245;SDS011;10781;50.928;4.440;2023-07-30T06:41:05;12.32;;;2.42;;
21245;SDS011;10781;50.928;4.440;2023-07-30T06:43:30;13.57;;;2.78;;
21245;SDS011;10781;50.928;4.440;2023-07-30T06:45:56;12.57;;;2.88;;
21245;SDS011;10781;50.928;4.440;2023-07-30T06:48:22;12.95;;;2.83;;
21245;SDS011;10781;50.928;4.440;2023-07-30T06:50:47;9.85;;;2.72;;
21245;SDS011;10781;50.928;4.440;2023-07-30T06:53:13;14.93;;;3.30;;
21245;SDS011;10781;50.928;4.440;2023-07-30T06:55:39;13.05;;;2.92;;
21245;SDS011;10781;50.928;4.440;2023-07-30T06:58:04;14.40;;;3.03;;
21245;SDS011;10781;50.928;4.440;2023-07-30T07:00:30;13.35;;;3.28;;
21245;SDS011;10781;50.928;4.440;2023-07-30T07:02:56;19.48;;;3.17;;
21245;SDS011;10781;50.928;4.440;2023-07-30T07:05:21;12.10;;;3.15;;
21245;SDS011;10781;50.928;4.440;2023-07-30T07:07:47;12.57;;;2.90;;
21245;SDS011;10781;50.928;4.440;2023-07-30T07:10:12;12.52;;;2.67;;
21245;SDS011;10781;50.928;4.440;2023-07-30T07:12:39;10.80;;;2.53;;
21245;SDS011;10781;50.928;4.440;2023-07-30T07:15:05;16.23;;;2.90;;
21245;SDS011;10781;50.928;4.440;2023-07-30T07:17:31;10.32;;;2.63;;
21245;SDS011;10781;50.928;4.440;2023-07-30T07:19:57;10.35;;;2.60;;
21245;SDS011;10781;50.928;4.440;2023-07-30T07:22:23;15.38;;;3.03;;
21245;SDS011;10781;50.928;4.440;2023-07-30T07:24:48;12.43;;;2.38;;
21245;SDS011;10781;50.928;4.440;2023-07-30T07:27:17;12.40;;;2.72;;
21245;SDS011;10781;50.928;4.440;2023-07-30T07:29:43;9.75;;;2.50;;
21245;SDS011;10781;50.928;4.440;2023-07-30T07:32:08;12.13;;;2.50;;
21245;SDS011;10781;50.928;4.440;2023-07-30T07:34:34;7.90;;;2.53;;
21245;SDS011;10781;50.928;4.440;2023-07-30T07:37:00;13.07;;;2.72;;
21245;SDS011;10781;50.928;4.440;2023-07-30T07:39:26;12.93;;;2.70;;
21245;SDS011;10781;50.928;4.440;2023-07-30T07:41:52;9.27;;;2.38;;
21245;SDS011;10781;50.928;4.440;2023-07-30T07:44:18;11.57;;;2.47;;
21245;SDS011;10781;50.928;4.440;2023-07-30T07:46:43;10.40;;;2.60;;
21245;SDS011;10781;50.928;4.440;2023-07-30T07:49:09;12.80;;;2.40;;
21245;SDS011;10781;50.928;4.440;2023-07-30T07:51:34;12.38;;;2.67;;
21245;SDS011;10781;50.928;4.440;2023-07-30T07:54:00;9.32;;;2.53;;
21245;SDS011;10781;50.928;4.440;2023-07-30T07:56:26;11.77;;;2.72;;
21245;SDS011;10781;50.928;4.440;2023-07-30T07:58:51;11.93;;;2.33;;
21245;SDS011;10781;50.928;4.440;2023-07-30T08:01:17;9.40;;;2.17;;
21245;SDS011;10781;50.928;4.440;2023-07-30T08:03:43;10.25;;;2.63;;
21245;SDS011;10781;50.928;4.440;2023-07-30T08:06:09;12.63;;;2.33;;
21245;SDS011;10781;50.928;4.440;2023-07-30T08:08:35;11.25;;;2.47;;
21245;SDS011;10781;50.928;4.440;2023-07-30T08:11:07;11.85;;;2.30;;
21245;SDS011;10781;50.928;4.440;2023-07-30T08:13:33;10.13;;;2.38;;
21245;SDS011;10781;50.928;4.440;2023-07-30T08:16:00;8.07;;;2.10;;
21245;SDS011;10781;50.928;4.440;2023-07-30T08:18:26;10.38;;;2.50;;
21245;SDS011;10781;50.928;4.440;2023-07-30T08:20:52;9.35;;;2.20;;
21245;SDS011;10781;50.928;4.440;2023-07-30T08:23:18;11.70;;;2.50;;
21245;SDS011;10781;50.928;4.440;2023-07-30T08:25:43;9.75;;;2.00;;
21245;SDS011;10781;50.928;4.440;2023-07-30T08:28:09;10.70;;;2.10;;
21245;SDS011;10781;50.928;4.440;2023-07-30T08:30:35;9.57;;;2.05;;
21245;SDS011;10781;50.928;4.440;2023-07-30T08:33:00;6.95;;;1.88;;
21245;SDS011;10781;50.928;4.440;2023-07-30T08:35:26;11.02;;;2.03;;
21245;SDS011;10781;50.928;4.440;2023-07-30T08:37:52;9.98;;;2.13;;
21245;SDS011;10781;50.928;4.440;2023-07-30T08:40:20;10.73;;;2.00;;
21245;SDS011;10781;50.928;4.440;2023-07-30T08:42:48;14.32;;;2.30;;
21245;SDS011;10781;50.928;4.440;2023-07-30T08:45:16;8.00;;;2.28;;
21245;SDS011;10781;50.928;4.440;2023-07-30T08:47:42;7.13;;;1.55;;
21245;SDS011;10781;50.928;4.440;2023-07-30T08:50:07;9.73;;;2.15;;
21245;SDS011;10781;50.928;4.440;2023-07-30T08:52:33;9.05;;;2.28;;
21245;SDS011;10781;50.928;4.440;2023-07-30T08:55:01;9.25;;;2.00;;
21245;SDS011;10781;50.928;4.440;2023-07-30T08:57:31;8.88;;;1.95;;
21245;SDS011;10781;50.928;4.440;2023-07-30T09:00:02;7.90;;;1.63;;
21245;SDS011;10781;50.928;4.440;2023-07-30T09:02:49;7.05;;;1.60;;
21245;SDS011;10781;50.928;4.440;2023-07-30T09:05:20;4.85;;;1.30;;
21245;SDS011;10781;50.928;4.440;2023-07-30T09:07:46;4.35;;;1.20;;
21245;SDS011;10781;50.928;4.440;2023-07-30T09:10:12;5.20;;;1.38;;
21245;SDS011;10781;50.928;4.440;2023-07-30T09:12:39;4.50;;;1.08;;
21245;SDS011;10781;50.928;4.440;2023-07-30T09:15:05;3.85;;;1.20;;
21245;SDS011;10781;50.928;4.440;2023-07-30T09:17:32;6.85;;;1.30;;
21245;SDS011;10781;50.928;4.440;2023-07-30T09:19:59;5.68;;;1.27;;
21245;SDS011;10781;50.928;4.440;2023-07-30T09:22:29;2.45;;;0.98;;
21245;SDS011;10781;50.928;4.440;2023-07-30T09:25:04;3.88;;;1.20;;
21245;SDS011;10781;50.928;4.440;2023-07-30T09:27:31;5.72;;;1.27;;
21245;SDS011;10781;50.928;4.440;2023-07-30T09:30:01;7.07;;;1.85;;
21245;SDS011;10781;50.928;4.440;2023-07-30T09:32:29;5.78;;;1.50;;
21245;SDS011;10781;50.928;4.440;2023-07-30T09:35:07;5.68;;;1.83;;
21245;SDS011;10781;50.928;4.440;2023-07-30T09:37:40;5.80;;;1.85;;
21245;SDS011;10781;50.928;4.440;2023-07-30T09:40:06;6.28;;;1.77;;
21245;SDS011;10781;50.928;4.440;2023-07-30T09:42:34;9.63;;;1.80;;
21245;SDS011;10781;50.928;4.440;2023-07-30T09:45:04;9.43;;;2.20;;
21245;SDS011;10781;50.928;4.440;2023-07-30T09:47:34;6.78;;;2.40;;
21245;SDS011;10781;50.928;4.440;2023-07-30T09:50:02;8.52;;;2.22;;
21245;SDS011;10781;50.928;4.440;2023-07-30T09:52:29;9.32;;;2.17;;
21245;SDS011;10781;50.928;4.440;2023-07-30T09:54:57;7.63;;;2.33;;
21245;SDS011;10781;50.928;4.440;2023-07-30T09:57:23;9.23;;;2.72;;
21245;SDS011;10781;50.928;4.440;2023-07-30T09:59:48;10.02;;;2.30;;
21245;SDS011;10781;50.928;4.440;2023-07-30T10:02:14;10.23;;;2.45;;
21245;SDS011;10781;50.928;4.440;2023-07-30T10:04:42;11.23;;;2.97;;
21245;SDS011;10781;50.928;4.440;2023-07-30T10:07:14;6.18;;;2.20;;
21245;SDS011;10781;50.928;4.440;2023-07-30T10:09:45;7.82;;;2.30;;
21245;SDS011;10781;50.928;4.440;2023-07-30T10:12:14;6.40;;;2.28;;
21245;SDS011;10781;50.928;4.440;2023-07-30T10:14:43;6.78;;;2.00;;
21245;SDS011;10781;50.928;4.440;2023-07-30T10:17:10;11.30;;;2.10;;
21245;SDS011;10781;50.928;4.440;2023-07-30T10:19:36;7.40;;;1.80;;
21245;SDS011;10781;50.928;4.440;2023-07-30T10:24:59;6.47;;;1.55;;
21245;SDS011;10781;50.928;4.440;2023-07-30T10:27:27;5.25;;;1.70;;
21245;SDS011;10781;50.928;4.440;2023-07-30T10:36:02;7.25;;;1.55;;
21245;SDS011;10781;50.928;4.440;2023-07-30T10:41:04;5.95;;;1.50;;
21245;SDS011;10781;50.928;4.440;2023-07-30T10:43:30;7.25;;;1.90;;
21245;SDS011;10781;50.928;4.440;2023-07-30T10:45:59;5.78;;;1.60;;
21245;SDS011;10781;50.928;4.440;2023-07-30T10:48:31;7.25;;;1.50;;
21245;SDS011;10781;50.928;4.440;2023-07-30T10:50:59;6.78;;;1.70;;
21245;SDS011;10781;50.928;4.440;2023-07-30T10:53:29;5.70;;;1.08;;
21245;SDS011;10781;50.928;4.440;2023-07-30T10:55:57;7.55;;;1.83;;
21245;SDS011;10781;50.928;4.440;2023-07-30T10:58:25;5.30;;;1.50;;
21245;SDS011;10781;50.928;4.440;2023-07-30T11:00:52;5.20;;;1.48;;
21245;SDS011;10781;50.928;4.440;2023-07-30T11:03:17;5.68;;;1.60;;
21245;SDS011;10781;50.928;4.440;2023-07-30T11:05:46;6.50;;;1.58;;
21245;SDS011;10781;50.928;4.440;2023-07-30T11:08:13;6.32;;;1.58;;
21245;SDS011;10781;50.928;4.440;2023-07-30T11:10:45;5.57;;;1.60;;
21245;SDS011;10781;50.928;4.440;2023-07-30T11:13:14;6.60;;;1.80;;
21245;SDS011;10781;50.928;4.440;2023-07-30T11:15:43;4.75;;;1.52;;
21245;SDS011;10781;50.928;4.440;2023-07-30T11:18:10;6.47;;;1.60;;
21245;SDS011;10781;50.928;4.440;2023-07-30T11:20:37;8.70;;;1.90;;
21245;SDS011;10781;50.928;4.440;2023-07-30T11:25:45;9.10;;;1.73;;
21245;SDS011;10781;50.928;4.440;2023-07-30T11:28:13;6.15;;;1.60;;
21245;SDS011;10781;50.928;4.440;2023-07-30T11:30:38;8.40;;;1.83;;
21245;SDS011;10781;50.928;4.440;2023-07-30T11:33:04;7.30;;;1.70;;
21245;SDS011;10781;50.928;4.440;2023-07-30T11:35:30;6.85;;;1.80;;
21245;SDS011;10781;50.928;4.440;2023-07-30T11:37:56;5.88;;;1.60;;
21245;SDS011;10781;50.928;4.440;2023-07-30T11:40:22;6.47;;;2.20;;
21245;SDS011;10781;50.928;4.440;2023-07-30T11:42:49;6.10;;;1.73;;
21245;SDS011;10781;50.928;4.440;2023-07-30T11:45:22;4.13;;;1.50;;
21245;SDS011;10781;50.928;4.440;2023-07-30T11:47:48;4.20;;;1.25;;
21245;SDS011;10781;50.928;4.440;2023-07-30T11:50:15;5.78;;;1.20;;
21245;SDS011;10781;50.928;4.440;2023-07-30T11:52:53;4.63;;;1.35;;
21245;SDS011;10781;50.928;4.440;2023-07-30T11:55:21;4.97;;;1.13;;
21245;SDS011;10781;50.928;4.440;2023-07-30T11:57:47;5.18;;;1.50;;
21245;SDS011;10781;50.928;4.440;2023-07-30T12:00:12;4.97;;;1.40;;
21245;SDS011;10781;50.928;4.440;2023-07-30T12:02:38;3.60;;;1.17;;
21245;SDS011;10781;50.928;4.440;2023-07-30T12:05:04;3.95;;;1.40;;
21245;SDS011;10781;50.928;4.440;2023-07-30T12:07:32;5.00;;;1.30;;
21245;SDS011;10781;50.928;4.440;2023-07-30T12:10:11;4.55;;;1.20;;
21245;SDS011;10781;50.928;4.440;2023-07-30T12:12:44;5.32;;;1.35;;
21245;SDS011;10781;50.928;4.440;2023-07-30T12:15:11;4.03;;;1.00;;
21245;SDS011;10781;50.928;4.440;2023-07-30T12:17:37;5.75;;;1.42;;
21245;SDS011;10781;50.928;4.440;2023-07-30T12:20:04;4.72;;;1.40;;
21245;SDS011;10781;50.928;4.440;2023-07-30T12:22:32;3.08;;;1.10;;
21245;SDS011;10781;50.928;4.440;2023-07-30T12:24:59;3.83;;;0.93;;
21245;SDS011;10781;50.928;4.440;2023-07-30T12:27:25;4.05;;;1.20;;
21245;SDS011;10781;50.928;4.440;2023-07-30T12:29:51;3.90;;;1.13;;
21245;SDS011;10781;50.928;4.440;2023-07-30T12:32:17;5.68;;;1.38;;
21245;SDS011;10781;50.928;4.440;2023-07-30T12:34:43;2.92;;;1.10;;
21245;SDS011;10781;50.928;4.440;2023-07-30T12:37:09;3.78;;;1.30;;
21245;SDS011;10781;50.928;4.440;2023-07-30T12:39:34;4.35;;;1.40;;
21245;SDS011;10781;50.928;4.440;2023-07-30T12:42:00;4.95;;;1.17;;
21245;SDS011;10781;50.928;4.440;2023-07-30T12:44:26;6.15;;;1.40;;
21245;SDS011;10781;50.928;4.440;2023-07-30T12:46:51;3.17;;;1.20;;
21245;SDS011;10781;50.928;4.440;2023-07-30T12:49:17;5.38;;;1.35;;
21245;SDS011;10781;50.928;4.440;2023-07-30T12:51:43;5.10;;;1.42;;
21245;SDS011;10781;50.928;4.440;2023-07-30T12:54:09;3.03;;;1.17;;
21245;SDS011;10781;50.928;4.440;2023-07-30T12:56:35;3.00;;;1.10;;
21245;SDS011;10781;50.928;4.440;2023-07-30T12:59:01;5.28;;;1.20;;
21245;SDS011;10781;50.928;4.440;2023-07-30T13:01:27;5.68;;;1.80;;
21245;SDS011;10781;50.928;4.440;2023-07-30T13:03:52;5.13;;;1.13;;
21245;SDS011;10781;50.928;4.440;2023-07-30T13:06:20;2.80;;;0.88;;
21245;SDS011;10781;50.928;4.440;2023-07-30T13:08:46;5.40;;;1.40;;
21245;SDS011;10781;50.928;4.440;2023-07-30T13:11:12;5.15;;;1.33;;
21245;SDS011;10781;50.928;4.440;2023-07-30T13:13:38;3.35;;;0.90;;
21245;SDS011;10781;50.928;4.440;2023-07-30T13:16:03;4.13;;;1.00;;
21245;SDS011;10781;50.928;4.440;2023-07-30T13:18:29;3.60;;;1.20;;
21245;SDS011;10781;50.928;4.440;2023-07-30T13:20:55;4.70;;;1.23;;
21245;SDS011;10781;50.928;4.440;2023-07-30T13:23:20;2.75;;;1.20;;
21245;SDS011;10781;50.928;4.440;2023-07-30T13:25:46;6.13;;;1.40;;
21245;SDS011;10781;50.928;4.440;2023-07-30T13:28:12;4.53;;;1.25;;
21245;SDS011;10781;50.928;4.440;2023-07-30T13:30:38;4.07;;;1.45;;
21245;SDS011;10781;50.928;4.440;2023-07-30T13:33:03;3.05;;;1.20;;
21245;SDS011;10781;50.928;4.440;2023-07-30T13:35:29;4.20;;;1.30;;
21245;SDS011;10781;50.928;4.440;2023-07-30T13:37:54;2.42;;;1.20;;
21245;SDS011;10781;50.928;4.440;2023-07-30T13:40:20;4.07;;;1.30;;
21245;SDS011;10781;50.928;4.440;2023-07-30T13:42:46;4.63;;;1.40;;
21245;SDS011;10781;50.928;4.440;2023-07-30T13:45:11;3.72;;;1.30;;
21245;SDS011;10781;50.928;4.440;2023-07-30T13:47:37;3.75;;;1.33;;
21245;SDS011;10781;50.928;4.440;2023-07-30T13:50:02;4.80;;;1.40;;
21245;SDS011;10781;50.928;4.440;2023-07-30T13:52:28;5.28;;;1.30;;
21245;SDS011;10781;50.928;4.440;2023-07-30T13:54:54;4.30;;;1.25;;
21245;SDS011;10781;50.928;4.440;2023-07-30T13:57:23;4.40;;;1.40;;
21245;SDS011;10781;50.928;4.440;2023-07-30T13:59:50;5.45;;;1.42;;
21245;SDS011;10781;50.928;4.440;2023-07-30T14:02:16;3.75;;;1.52;;
21245;SDS011;10781;50.928;4.440;2023-07-30T14:04:41;4.00;;;1.73;;
21245;SDS011;10781;50.928;4.440;2023-07-30T14:07:07;3.10;;;1.40;;
21245;SDS011;10781;50.928;4.440;2023-07-30T14:09:33;3.38;;;1.50;;
21245;SDS011;10781;50.928;4.440;2023-07-30T14:12:01;5.68;;;1.38;;
21245;SDS011;10781;50.928;4.440;2023-07-30T14:14:27;4.07;;;1.52;;
21245;SDS011;10781;50.928;4.440;2023-07-30T14:16:53;6.28;;;1.85;;
21245;SDS011;10781;50.928;4.440;2023-07-30T14:19:20;5.35;;;1.75;;
21245;SDS011;10781;50.928;4.440;2023-07-30T14:21:45;4.88;;;1.60;;
21245;SDS011;10781;50.928;4.440;2023-07-30T14:24:11;5.40;;;1.58;;
21245;SDS011;10781;50.928;4.440;2023-07-30T14:26:37;4.32;;;1.65;;
21245;SDS011;10781;50.928;4.440;2023-07-30T14:29:02;4.75;;;1.60;;
21245;SDS011;10781;50.928;4.440;2023-07-30T14:31:28;3.22;;;1.42;;
21245;SDS011;10781;50.928;4.440;2023-07-30T14:33:54;4.28;;;1.48;;
21245;SDS011;10781;50.928;4.440;2023-07-30T14:36:19;5.97;;;1.73;;
21245;SDS011;10781;50.928;4.440;2023-07-30T14:38:45;6.97;;;2.22;;
21245;SDS011;10781;50.928;4.440;2023-07-30T14:41:10;4.93;;;1.67;;
21245;SDS011;10781;50.928;4.440;2023-07-30T14:43:37;5.55;;;1.73;;
21245;SDS011;10781;50.928;4.440;2023-07-30T14:46:03;6.07;;;1.90;;
21245;SDS011;10781;50.928;4.440;2023-07-30T14:48:28;4.18;;;1.73;;
21245;SDS011;10781;50.928;4.440;2023-07-30T14:50:54;5.32;;;2.00;;
21245;SDS011;10781;50.928;4.440;2023-07-30T14:53:20;4.47;;;1.63;;